METAR Data
IDs: Format: Raw Decoded Include TAF

Data at: 1456 UTC 27 Nov 2021

ETSB 271420Z AUTO 23005KT 9999 // ////// 01/M01 Q0990 ///